Time;durP1;ratioP1;P1;durP2;ratioP2;P2;SDS_P1;SDS_P2;PMS_P1;PMS_P2;Temp;Humidity;BMP_temperature;BMP_pressure;BME280_temperature;BME280_humidity;BME280_pressure;Samples;Min_cycle;Max_cycle;Signal;HPM_P1;HPM_P2
2023/02/06 00:01:27;;;;;;;;;;;;;;;;;;;;;
2023/02/06 00:03:55;;;;;;;20.98;3.75;;;3.00;99.90;;;;;;5056161;28;20033;-91
2023/02/06 00:06:57;;;;;;;;;;;;;;;;;;;;;
2023/02/06 00:09:30;;;;;;;11.35;2.08;;;2.90;99.90;;;;;;5051513;28;20389;-90
2023/02/06 00:12:10;;;;;;;12.13;2.40;;;2.90;99.90;;;;;;5029017;28;20067;-90
2023/02/06 00:14:56;;;;;;;11.88;2.90;;;2.90;99.90;;;;;;5039350;28;20072;-91
2023/02/06 00:17:29;;;;;;;12.38;2.63;;;2.90;99.90;;;;;;5040031;28;20036;-91
2023/02/06 00:20:23;;;;;;;15.82;3.67;;;2.90;99.90;;;;;;5054312;28;20057;-91
2023/02/06 00:23:02;;;;;;;15.50;2.58;;;2.90;99.90;;;;;;5037282;28;20036;-91
2023/02/06 00:25:36;;;;;;;14.10;2.17;;;2.80;99.90;;;;;;5055667;28;20122;-90
2023/02/06 00:28:33;;;;;;;10.98;3.08;;;2.80;99.90;;;;;;5058817;28;20045;-91
2023/02/06 00:31:16;;;;;;;14.43;2.90;;;2.80;99.90;;;;;;5047404;28;20039;-91
2023/02/06 00:33:46;;;;;;;17.50;2.58;;;2.70;99.90;;;;;;5055294;28;20132;-92
2023/02/06 00:36:57;;;;;;;11.80;2.72;;;2.70;99.90;;;;;;5038460;28;20036;-91
2023/02/06 00:39:37;;;;;;;14.63;2.22;;;2.70;99.90;;;;;;5039766;28;20059;-92
2023/02/06 00:42:05;;;;;;;10.30;2.20;;;2.70;99.90;;;;;;5054408;28;20033;-92
2023/02/06 00:44:34;;;;;;;14.48;2.55;;;2.60;99.90;;;;;;5054542;28;20033;-92
2023/02/06 00:47:35;;;;;;;14.63;2.67;;;2.60;99.90;;;;;;5048767;28;20029;-93
2023/02/06 00:50:07;;;;;;;21.55;3.03;;;2.60;99.90;;;;;;4955421;29;20076;-93
2023/02/06 00:52:49;;;;;;;18.23;3.25;;;2.60;99.90;;;;;;5035321;28;20044;-93
2023/02/06 00:55:24;;;;;;;18.17;2.90;;;2.60;99.90;;;;;;5054254;28;20040;-91
2023/02/06 00:57:51;;;;;;;19.88;4.10;;;2.60;99.90;;;;;;5035010;28;20051;-92
2023/02/06 01:00:28;;;;;;;22.52;3.40;;;2.60;99.90;;;;;;5040505;28;20135;-92
2023/02/06 01:03:02;;;;;;;16.33;2.80;;;2.60;99.90;;;;;;5074903;28;20505;-91
2023/02/06 01:05:34;;;;;;;12.55;2.20;;;2.60;99.90;;;;;;5057551;28;20032;-91
2023/02/06 01:08:13;;;;;;;15.75;2.53;;;2.60;99.90;;;;;;5057021;28;20068;-91
2023/02/06 01:10:41;;;;;;;13.48;2.45;;;2.60;99.90;;;;;;5074473;28;20033;-91
2023/02/06 01:13:10;;;;;;;12.43;2.50;;;2.60;99.90;;;;;;5075721;28;20033;-91
2023/02/06 01:15:39;;;;;;;16.98;2.80;;;2.60;99.90;;;;;;5075815;28;20036;-92
2023/02/06 01:18:11;;;;;;;12.27;2.38;;;2.50;99.90;;;;;;5082609;28;20170;-91
2023/02/06 01:20:46;;;;;;;16.25;2.35;;;2.60;99.90;;;;;;5079737;28;20037;-90
2023/02/06 01:23:24;;;;;;;20.35;3.00;;;2.50;99.90;;;;;;5081832;28;20036;-91
2023/02/06 01:25:57;;;;;;;17.08;2.60;;;2.50;99.90;;;;;;5065015;28;20025;-91
2023/02/06 01:28:35;;;;;;;16.00;3.38;;;2.50;99.90;;;;;;5067282;28;20028;-90
2023/02/06 01:31:49;;;;;;;14.77;2.78;;;2.50;99.90;;;;;;5091336;28;20056;-90
2023/02/06 01:34:20;;;;;;;12.60;2.50;;;2.50;99.90;;;;;;5076231;28;20044;-90
2023/02/06 01:36:57;;;;;;;8.90;3.15;;;2.50;99.90;;;;;;5058957;28;20029;-90
2023/02/06 01:39:33;;;;;;;16.60;2.58;;;2.50;99.90;;;;;;5059107;28;20040;-90
2023/02/06 01:42:16;;;;;;;18.02;2.30;;;2.50;99.90;;;;;;5074260;28;20104;-91
2023/02/06 01:44:45;;;;;;;21.10;4.43;;;2.60;99.90;;;;;;5057943;28;20033;-91
2023/02/06 01:47:24;;;;;;;17.17;2.78;;;2.60;99.90;;;;;;5074742;28;20481;-90
2023/02/06 01:49:53;;;;;;;16.35;3.65;;;2.70;99.90;;;;;;5073828;28;20043;-91
2023/02/06 01:52:30;;;;;;;15.55;2.95;;;2.70;99.90;;;;;;5073856;28;20110;-90
2023/02/06 01:55:10;;;;;;;14.15;2.22;;;2.80;99.90;;;;;;5073466;28;20041;-90
2023/02/06 01:57:51;;;;;;;11.15;2.30;;;2.80;99.90;;;;;;5057030;28;20033;-91
2023/02/06 02:00:34;;;;;;;16.75;2.90;;;2.80;99.90;;;;;;5074002;28;20053;-91
2023/02/06 02:03:05;;;;;;;;;;;2.80;99.90;;;;;;5057979;28;20043;-91
2023/02/06 02:05:58;;;;;;;16.60;2.45;;;2.80;99.90;;;;;;5074759;28;19927;-91
2023/02/06 02:08:50;;;;;;;13.68;2.63;;;2.90;99.90;;;;;;5056601;28;20024;-91
2023/02/06 02:11:32;;;;;;;16.08;2.55;;;2.90;99.90;;;;;;5057013;28;20045;-90
2023/02/06 02:14:09;;;;;;;8.43;2.20;;;3.00;99.90;;;;;;5073773;28;20036;-91
2023/02/06 02:17:07;;;;;;;16.92;3.05;;;3.00;99.90;;;;;;5060292;28;20036;-90
2023/02/06 02:20:12;;;;;;;8.98;2.20;;;3.00;99.90;;;;;;5060992;28;20147;-91
2023/02/06 02:23:22;;;;;;;13.25;2.63;;;3.10;99.90;;;;;;5078545;28;20037;-89
2023/02/06 02:26:34;;;;;;;16.50;2.30;;;3.10;99.90;;;;;;5077672;28;20037;-91
2023/02/06 02:29:45;;;;;;;14.85;2.45;;;3.10;99.90;;;;;;5038221;28;20032;-90
2023/02/06 02:32:59;;;;;;;19.15;2.63;;;3.10;99.90;;;;;;5078110;28;20028;-91
2023/02/06 02:35:48;;;;;;;14.93;2.47;;;3.10;99.90;;;;;;4997660;28;20046;-89
2023/02/06 02:39:02;;;;;;;14.75;2.63;;;3.20;99.90;;;;;;5060777;28;20108;-89
2023/02/06 02:42:07;;;;;;;17.27;3.28;;;3.20;99.90;;;;;;5077979;28;20036;-90
2023/02/06 02:45:14;;;;;;;17.45;2.85;;;3.20;99.90;;;;;;5076764;28;20040;-90
2023/02/06 02:48:14;;;;;;;13.32;2.40;;;3.20;99.90;;;;;;5048885;28;20064;-90
2023/02/06 02:50:46;;;;;;;18.50;3.80;;;3.20;99.90;;;;;;5076444;28;20115;-90
2023/02/06 02:53:14;;;;;;;16.95;2.80;;;3.20;99.90;;;;;;5043560;28;20045;-89
2023/02/06 02:56:23;;;;;;;16.05;2.45;;;3.30;99.90;;;;;;5059918;28;20045;-90
2023/02/06 02:59:02;;;;;;;13.18;2.33;;;3.30;99.90;;;;;;5075947;28;20084;-89
2023/02/06 03:01:48;;;;;;;11.00;2.45;;;3.30;99.90;;;;;;5076623;28;20067;-91
2023/02/06 03:04:28;;;;;;;12.80;1.92;;;3.30;99.90;;;;;;5077193;28;20111;-89
2023/02/06 03:07:25;;;;;;;12.55;2.38;;;3.30;99.90;;;;;;5059200;28;20156;-88
2023/02/06 03:10:34;;;;;;;14.05;2.58;;;3.40;99.90;;;;;;5076252;28;20032;-90
2023/02/06 03:13:46;;;;;;;14.50;2.58;;;3.40;99.90;;;;;;5076350;28;20032;-89
2023/02/06 03:16:43;;;;;;;14.48;2.78;;;3.40;99.90;;;;;;5076502;28;20131;-90
2023/02/06 03:19:14;;;;;;;15.82;2.55;;;3.40;99.90;;;;;;5075417;28;20502;-89
2023/02/06 03:21:47;;;;;;;14.15;2.65;;;3.40;99.90;;;;;;5059716;28;20032;-89
2023/02/06 03:24:22;;;;;;;13.18;2.20;;;3.40;99.90;;;;;;5077808;28;20078;-89
2023/02/06 03:27:24;;;;;;;18.15;3.00;;;3.40;99.90;;;;;;5058619;28;20029;-90
2023/02/06 03:30:07;;;;;;;10.63;1.95;;;3.40;99.90;;;;;;5059274;28;20029;-90
2023/02/06 03:33:15;;;;;;;10.68;2.60;;;3.40;99.90;;;;;;5074513;28;20055;-88
2023/02/06 03:35:57;;;;;;;8.43;1.75;;;3.40;99.90;;;;;;5076593;28;20037;-91
2023/02/06 03:38:30;;;;;;;8.52;1.58;;;3.40;99.90;;;;;;5059308;28;20051;-90
2023/02/06 03:41:02;;;;;;;9.90;1.80;;;3.40;99.90;;;;;;5076513;28;20036;-90
2023/02/06 03:43:36;;;;;;;10.07;1.60;;;3.40;99.90;;;;;;5059989;28;20036;-90
2023/02/06 03:46:11;;;;;;;9.15;1.60;;;3.40;99.90;;;;;;5077220;28;20040;-90
2023/02/06 03:48:47;;;;;;;;;;;3.30;99.90;;;;;;5076221;28;20412;-91
2023/02/06 03:51:23;;;;;;;7.97;1.45;;;3.30;99.90;;;;;;5075777;28;20007;-90
2023/02/06 03:53:59;;;;;;;8.68;2.45;;;3.20;99.90;;;;;;5075094;28;20535;-91
2023/02/06 03:57:12;;;;;;;7.90;1.27;;;3.10;99.90;;;;;;5076878;28;20040;-91
2023/02/06 03:59:41;;;;;;;10.15;1.67;;;3.00;99.90;;;;;;5053869;28;20401;-91
2023/02/06 04:02:16;;;;;;;10.38;1.40;;;2.90;99.90;;;;;;5038894;28;20037;-90
2023/02/06 04:04:47;;;;;;;9.68;1.50;;;2.80;99.90;;;;;;5039055;28;20035;-91
2023/02/06 04:07:34;;;;;;;8.98;1.40;;;2.80;99.90;;;;;;5038428;28;20033;-90
2023/02/06 04:10:07;;;;;;;11.35;1.95;;;2.80;99.90;;;;;;5039010;28;20045;-90
2023/02/06 04:12:42;;;;;;;11.40;1.58;;;2.70;99.90;;;;;;5038532;28;20056;-90
2023/02/06 04:15:13;;;;;;;10.38;1.65;;;2.70;99.90;;;;;;5038798;28;20056;-90
2023/02/06 04:18:07;;;;;;;11.00;1.92;;;2.70;99.90;;;;;;5022631;28;20033;-90
2023/02/06 04:20:47;;;;;;;9.25;1.70;;;2.70;99.90;;;;;;5038917;28;20052;-91
2023/02/06 04:23:18;;;;;;;8.10;1.30;;;2.60;99.90;;;;;;5039085;28;20216;-90
2023/02/06 04:25:53;;;;;;;9.85;2.80;;;2.60;99.90;;;;;;5038264;28;20048;-90
2023/02/06 04:28:23;;;;;;;9.30;1.20;;;2.60;99.90;;;;;;5038680;28;20037;-90
2023/02/06 04:30:56;;;;;;;12.32;1.98;;;2.50;99.90;;;;;;5056004;28;20063;-91
2023/02/06 04:33:25;;;;;;;8.27;1.52;;;2.60;99.90;;;;;;5038389;28;20037;-91
2023/02/06 04:35:57;;;;;;;7.30;1.35;;;2.60;99.90;;;;;;5055863;28;20072;-91
2023/02/06 04:38:32;;;;;;;5.18;1.00;;;2.50;99.90;;;;;;5021973;28;20045;-91
2023/02/06 04:41:07;;;;;;;3.50;1.13;;;2.50;99.90;;;;;;5054655;28;20060;-90
2023/02/06 04:43:40;;;;;;;;;;;2.50;99.90;;;;;;5040665;28;20037;-91
2023/02/06 04:46:12;;;;;;;6.43;1.10;;;2.50;99.90;;;;;;5040114;28;19904;-89
2023/02/06 04:48:45;;;;;;;6.43;1.63;;;2.50;99.90;;;;;;5038893;28;20037;-91
2023/02/06 04:51:29;;;;;;;;;;;2.50;99.90;;;;;;5038358;28;20033;-92
2023/02/06 04:54:01;;;;;;;9.38;1.65;;;2.40;99.90;;;;;;4958068;28;19922;-91
2023/02/06 04:56:35;;;;;;;6.75;1.10;;;2.40;99.90;;;;;;5055880;28;20044;-91
2023/02/06 04:59:13;;;;;;;9.77;1.23;;;2.40;99.90;;;;;;5025531;28;20061;-91
2023/02/06 05:01:54;;;;;;;6.85;1.48;;;2.40;99.90;;;;;;5041903;28;20080;-91
2023/02/06 05:04:23;;;;;;;9.25;1.90;;;2.50;99.90;;;;;;5074571;28;20029;-92
2023/02/06 05:06:54;;;;;;;5.85;1.02;;;2.50;99.90;;;;;;5057766;28;20033;-92
2023/02/06 05:09:26;;;;;;;7.60;1.63;;;2.40;99.90;;;;;;5074247;28;20558;-91
2023/02/06 05:11:57;;;;;;;8.93;1.48;;;2.50;99.90;;;;;;5057614;28;20033;-90
2023/02/06 05:14:25;;;;;;;6.50;1.50;;;2.50;99.90;;;;;;5073831;28;20056;-90
2023/02/06 05:16:54;;;;;;;5.28;1.20;;;2.50;99.90;;;;;;5056524;28;20378;-91
2023/02/06 05:19:33;;;;;;;5.97;1.45;;;2.50;99.90;;;;;;5057153;28;20473;-90
2023/02/06 05:22:30;;;;;;;6.65;1.30;;;2.50;99.90;;;;;;5074350;28;20119;-90
2023/02/06 05:25:04;;;;;;;5.97;1.48;;;2.40;99.90;;;;;;5071389;28;20048;-90
2023/02/06 05:27:57;;;;;;;7.90;1.45;;;2.50;99.90;;;;;;5073419;28;20033;-90
2023/02/06 05:30:48;;;;;;;7.88;1.75;;;2.40;99.90;;;;;;5074908;28;20037;-90
2023/02/06 05:33:38;;;;;;;8.38;1.48;;;2.30;99.90;;;;;;5090936;28;20037;-90
2023/02/06 05:36:10;;;;;;;6.22;1.50;;;2.30;99.90;;;;;;5055732;28;20393;-91
2023/02/06 05:38:38;;;;;;;8.63;1.60;;;2.20;99.90;;;;;;5057079;28;20051;-92
2023/02/06 05:41:12;;;;;;;6.55;1.10;;;2.20;99.90;;;;;;5057184;28;20099;-90
2023/02/06 05:43:43;;;;;;;5.03;0.90;;;2.20;99.90;;;;;;5056544;28;20086;-90
2023/02/06 05:46:42;;;;;;;5.13;1.30;;;2.20;99.90;;;;;;5056482;28;20132;-91
2023/02/06 05:49:11;;;;;;;6.25;1.05;;;2.20;99.90;;;;;;5074082;28;20041;-91
2023/02/06 05:51:42;;;;;;;9.55;1.40;;;2.20;99.90;;;;;;5056812;28;20127;-91
2023/02/06 05:54:17;;;;;;;6.75;1.20;;;2.20;99.90;;;;;;5057550;28;20079;-89
2023/02/06 05:57:14;;;;;;;7.78;1.58;;;2.20;99.90;;;;;;5075480;28;20024;-91
2023/02/06 06:00:07;;;;;;;6.97;1.85;;;2.20;99.90;;;;;;5051603;28;20396;-93
2023/02/06 06:03:00;;;;;;;6.30;1.65;;;2.30;99.90;;;;;;5060039;28;20065;-91
2023/02/06 06:09:40;;;;;;;7.28;1.52;;;2.30;99.90;;;;;;5004593;28;20038;-92
2023/02/06 06:12:41;;;;;;;4.55;1.10;;;2.30;99.90;;;;;;4997547;28;20043;-93
2023/02/06 06:15:29;;;;;;;7.70;1.33;;;2.30;99.90;;;;;;5019511;28;20048;-92
2023/02/06 06:18:17;;;;;;;;;;;;;;;;;;;;;
2023/02/06 06:20:48;;;;;;;6.18;1.60;;;2.30;99.90;;;;;;5041727;28;20120;-92
2023/02/06 06:23:45;;;;;;;7.07;1.58;;;2.30;99.90;;;;;;5054237;28;20041;-92
2023/02/06 06:26:42;;;;;;;8.52;1.80;;;2.30;99.90;;;;;;5014214;28;20129;-92
2023/02/06 06:29:29;;;;;;;8.60;1.30;;;2.30;99.90;;;;;;5016625;28;20121;-92
2023/02/06 06:32:00;;;;;;;7.82;1.27;;;2.30;99.90;;;;;;5054617;28;20465;-93
2023/02/06 06:34:34;;;;;;;8.13;1.42;;;2.30;99.90;;;;;;5037750;28;20239;-94
2023/02/06 06:37:20;;;;;;;3.20;1.30;;;2.30;99.90;;;;;;5038009;28;20099;-93
2023/02/06 06:39:53;;;;;;;5.25;1.83;;;2.30;99.90;;;;;;5037365;28;20497;-92
2023/02/06 06:42:22;;;;;;;4.97;1.20;;;2.40;99.90;;;;;;5052455;28;20037;-91
2023/02/06 06:44:54;;;;;;;4.65;0.98;;;2.40;99.90;;;;;;5019180;28;20043;-92
2023/02/06 06:47:29;;;;;;;4.07;1.40;;;2.40;99.90;;;;;;5034541;28;20039;-91
2023/02/06 06:50:07;;;;;;;4.85;1.00;;;2.40;99.90;;;;;;5053342;28;20044;-91
2023/02/06 06:52:46;;;;;;;4.72;1.10;;;2.50;99.90;;;;;;5054757;28;20037;-91
2023/02/06 06:56:13;;;;;;;6.20;1.13;;;2.50;99.90;;;;;;5039614;28;20057;-91
2023/02/06 06:58:51;;;;;;;7.72;1.40;;;2.60;99.90;;;;;;5069017;28;20105;-91
2023/02/06 07:01:20;;;;;;;5.97;1.35;;;2.60;99.90;;;;;;5057933;28;20128;-92
2023/02/06 07:04:11;;;;;;;4.68;1.30;;;2.60;99.90;;;;;;5039327;28;20123;-93
2023/02/06 07:06:53;;;;;;;;;;;;;;;;;;;;;
2023/02/06 07:10:01;;;;;;;4.33;1.07;;;2.60;99.90;;;;;;5049424;28;20037;-92
2023/02/06 07:12:37;;;;;;;6.28;1.35;;;2.70;99.90;;;;;;5032047;28;20366;-92
2023/02/06 07:16:04;;;;;;;;;;;;;;;;;;;;;
2023/02/06 07:18:40;;;;;;;11.52;1.80;;;2.70;99.90;;;;;;5058996;28;20124;-94
2023/02/06 07:21:58;;;;;;;8.18;1.25;;;2.80;99.90;;;;;;5051742;28;20040;-93
2023/02/06 07:35:52;;;;;;;;;;;;;;;;;;;;;
2023/02/06 07:39:34;;;;;;;;;;;;;;;;;;;;;
2023/02/06 07:42:59;;;;;;;7.72;1.52;;;3.10;99.90;;;;;;4859122;29;20036;-92
2023/02/06 08:52:21;;;;;;;8.15;2.03;;;4.20;99.90;;;;;;5053178;28;20137;-90
2023/02/06 08:54:51;;;;;;;6.82;1.58;;;4.30;99.90;;;;;;5042897;28;20045;-90
2023/02/06 08:57:36;;;;;;;7.03;1.80;;;4.40;99.90;;;;;;5055495;28;20060;-91
2023/02/06 09:03:51;;;;;;;6.03;1.48;;;4.60;99.90;;;;;;5023751;28;19913;-90
2023/02/06 09:07:14;;;;;;;;;;;;;;;;;;;;;
2023/02/06 09:23:54;;;;;;;12.38;2.45;;;5.70;99.90;;;;;;4945132;28;20054;-89
2023/02/06 09:30:15;;;;;;;9.10;2.10;;;5.90;99.90;;;;;;4965945;28;20046;-89
2023/02/06 10:05:00;;;;;;;;;;;;;;;;;;;;;
2023/02/06 10:08:27;;;;;;;;;;;;;;;;;;;;;
2023/02/06 10:45:16;;;;;;;8.88;2.35;;;11.60;99.90;;;;;;5085055;27;1365743;-87
2023/02/06 10:47:44;;;;;;;9.30;2.50;;;10.90;99.90;;;;;;5083268;28;20088;-89
2023/02/06 10:50:19;;;;;;;9.25;2.38;;;10.50;99.90;;;;;;5084356;28;20201;-88
2023/02/06 10:52:46;;;;;;;12.48;2.47;;;10.30;99.90;;;;;;5075887;28;20034;-88
2023/02/06 10:55:19;;;;;;;7.88;1.98;;;10.10;99.90;;;;;;5093171;28;20016;-87
2023/02/06 10:57:52;;;;;;;8.15;2.05;;;10.00;99.90;;;;;;5083390;28;20070;-87
2023/02/06 11:00:23;;;;;;;;;;;9.90;99.90;;;;;;5087546;28;20020;-87
2023/02/06 11:02:54;;;;;;;8.32;1.77;;;10.00;99.90;;;;;;5075032;28;19905;-84
2023/02/06 11:05:30;;;;;;;7.70;1.75;;;10.50;99.90;;;;;;5077371;28;20123;-86
2023/02/06 11:08:32;;;;;;;6.93;1.95;;;11.10;99.90;;;;;;5075443;28;20020;-85
2023/02/06 11:11:12;;;;;;;9.85;1.88;;;11.60;99.90;;;;;;5048200;28;20028;-88
2023/02/06 11:13:43;;;;;;;8.82;1.70;;;11.90;99.90;;;;;;5087090;28;20561;-85
2023/02/06 11:16:15;;;;;;;9.43;2.42;;;12.30;99.90;;;;;;5103021;28;20538;-88
2023/02/06 11:18:44;;;;;;;8.55;2.00;;;12.60;99.90;;;;;;5092586;28;20084;-83
2023/02/06 11:21:14;;;;;;;9.10;1.75;;;13.10;99.90;;;;;;5098078;28;20105;-85
2023/02/06 11:23:41;;;;;;;11.45;1.77;;;13.30;99.90;;;;;;5108975;28;20164;-85
2023/02/06 11:26:14;;;;;;;7.47;2.13;;;13.30;99.90;;;;;;5070629;28;20020;-86
2023/02/06 11:29:03;;;;;;;;;;;13.20;99.90;;;;;;5072739;28;20027;-86
2023/02/06 11:31:59;;;;;;;10.48;2.30;;;12.80;99.90;;;;;;5070440;28;19947;-86
2023/02/06 11:34:28;;;;;;;11.95;2.50;;;12.60;99.90;;;;;;5083884;28;20489;-86
2023/02/06 11:36:57;;;;;;;10.02;1.98;;;12.40;99.90;;;;;;5069978;28;20029;-86
2023/02/06 11:39:26;;;;;;;12.25;1.90;;;12.40;99.90;;;;;;5070927;28;20119;-87
2023/02/06 11:42:01;;;;;;;11.50;2.08;;;13.00;99.90;;;;;;5073063;28;20020;-88
2023/02/06 11:44:33;;;;;;;11.75;2.35;;;13.80;99.90;;;;;;5070411;28;20074;-87
2023/02/06 11:47:19;;;;;;;12.25;2.63;;;14.50;99.90;;;;;;5074482;28;20036;-87
2023/02/06 11:49:45;;;;;;;12.95;2.88;;;15.10;99.90;;;;;;5072600;28;20032;-87
2023/02/06 11:52:30;;;;;;;8.70;1.85;;;14.70;99.90;;;;;;5088145;28;20016;-88
2023/02/06 11:55:00;;;;;;;8.68;1.42;;;14.00;99.90;;;;;;5066944;28;20020;-86
2023/02/06 11:57:33;;;;;;;9.68;2.20;;;13.20;99.90;;;;;;5069841;28;20076;-89
2023/02/06 12:00:04;;;;;;;11.30;2.67;;;12.60;99.90;;;;;;5078482;28;20027;-86
2023/02/06 12:02:33;;;;;;;8.75;2.03;;;12.10;99.90;;;;;;5063429;28;20040;-86
2023/02/06 12:05:16;;;;;;;10.35;1.88;;;12.70;99.90;;;;;;5076113;28;20043;-85
2023/02/06 12:08:05;;;;;;;8.60;2.08;;;14.30;99.90;;;;;;5065416;28;20808;-84
2023/02/06 12:10:35;;;;;;;10.50;1.98;;;15.40;99.90;;;;;;5073119;28;20494;-86
2023/02/06 12:13:13;;;;;;;10.30;1.73;;;15.70;99.90;;;;;;5070673;28;20588;-88
2023/02/06 12:15:49;;;;;;;8.23;1.80;;;15.50;99.90;;;;;;5071690;28;20138;-87
2023/02/06 12:18:20;;;;;;;11.63;2.05;;;15.10;99.90;;;;;;5072986;28;20444;-87
2023/02/06 12:20:54;;;;;;;9.40;2.03;;;14.90;99.90;;;;;;5072765;28;20062;-85
2023/02/06 12:23:43;;;;;;;8.07;1.88;;;14.60;99.90;;;;;;5071455;28;20079;-87
2023/02/06 12:26:17;;;;;;;12.98;1.98;;;14.20;99.90;;;;;;5072535;28;20085;-86
2023/02/06 12:29:14;;;;;;;8.80;1.95;;;13.90;99.90;;;;;;5074940;28;20031;-86
2023/02/06 12:32:08;;;;;;;7.80;1.60;;;13.40;99.90;;;;;;5074936;28;20035;-87
2023/02/06 12:34:54;;;;;;;10.00;1.65;;;12.80;99.90;;;;;;5075165;28;20032;-86
2023/02/06 12:37:30;;;;;;;8.82;1.73;;;12.10;99.90;;;;;;5072198;28;20024;-85
2023/02/06 12:39:57;;;;;;;9.90;2.13;;;11.60;99.90;;;;;;5067253;28;20469;-85
2023/02/06 12:42:31;;;;;;;8.80;1.48;;;11.20;99.90;;;;;;5067506;28;20059;-85
2023/02/06 12:45:21;;;;;;;8.52;1.58;;;11.00;99.90;;;;;;5066769;28;20049;-84
2023/02/06 12:47:56;;;;;;;9.00;1.67;;;11.10;99.90;;;;;;5063494;28;20489;-86
2023/02/06 12:50:38;;;;;;;8.43;1.55;;;11.30;99.90;;;;;;5070166;28;20025;-84
2023/02/06 12:53:09;;;;;;;8.05;1.58;;;11.50;99.90;;;;;;5069414;28;20021;-87
2023/02/06 12:55:43;;;;;;;9.73;1.70;;;11.90;99.90;;;;;;5070732;28;20503;-85
2023/02/06 12:58:29;;;;;;;8.98;1.98;;;12.60;99.90;;;;;;5070717;28;20021;-86
2023/02/06 13:01:41;;;;;;;10.68;1.52;;;13.70;99.90;;;;;;5069217;28;20023;-85
2023/02/06 13:04:22;;;;;;;8.05;1.50;;;14.90;99.90;;;;;;5017131;28;20466;-85
2023/02/06 13:06:54;;;;;;;7.07;1.73;;;16.30;99.90;;;;;;5069199;28;20146;-85
2023/02/06 13:09:29;;;;;;;5.47;1.15;;;17.00;99.90;;;;;;5058979;28;20418;-87
2023/02/06 13:12:14;;;;;;;6.03;1.95;;;17.10;99.90;;;;;;5062719;28;20025;-85
2023/02/06 13:15:01;;;;;;;6.75;1.75;;;17.20;99.90;;;;;;5057243;28;20020;-87
2023/02/06 13:17:36;;;;;;;7.32;1.35;;;17.50;99.90;;;;;;5064094;28;20027;-84
2023/02/06 13:20:13;;;;;;;8.23;1.55;;;17.20;99.90;;;;;;5069210;28;20020;-84
2023/02/06 13:22:50;;;;;;;5.47;1.52;;;16.30;99.90;;;;;;5067481;28;20028;-82
2023/02/06 13:25:27;;;;;;;8.02;1.65;;;15.30;99.90;;;;;;5065914;28;20792;-84
2023/02/06 13:27:54;;;;;;;4.63;0.98;;;14.60;99.90;;;;;;5062659;28;20024;-84
2023/02/06 13:30:29;;;;;;;7.45;1.58;;;14.80;99.90;;;;;;5058388;28;20703;-82
2023/02/06 13:33:09;;;;;;;4.93;1.23;;;15.30;99.90;;;;;;5068288;28;20519;-90
2023/02/06 13:35:52;;;;;;;8.93;1.77;;;15.00;99.90;;;;;;5068107;28;20032;-85
2023/02/06 13:38:21;;;;;;;9.07;1.55;;;13.90;99.90;;;;;;5067897;28;20485;-84
2023/02/06 13:40:47;;;;;;;8.18;1.75;;;13.00;99.90;;;;;;5069244;28;20405;-84
2023/02/06 13:43:23;;;;;;;6.40;1.50;;;12.60;99.90;;;;;;5070471;28;20090;-85
2023/02/06 13:46:00;;;;;;;7.05;1.35;;;13.20;99.90;;;;;;5086754;28;20047;-85
2023/02/06 13:48:25;;;;;;;6.22;1.23;;;13.80;99.90;;;;;;5070120;28;20016;-83
2023/02/06 13:51:14;;;;;;;4.80;1.13;;;14.80;99.90;;;;;;5071381;28;20058;-84
2023/02/06 13:53:54;;;;;;;8.55;1.52;;;15.80;99.90;;;;;;5090079;28;20024;-85
2023/02/06 13:56:51;;;;;;;4.80;1.10;;;16.00;99.90;;;;;;5089729;28;20027;-86
2023/02/06 13:59:33;;;;;;;4.75;1.30;;;16.30;99.90;;;;;;5066125;28;20035;-85
2023/02/06 14:02:27;;;;;;;4.72;1.17;;;16.70;99.90;;;;;;5088461;28;20052;-86
2023/02/06 14:04:53;;;;;;;3.95;1.10;;;16.90;99.90;;;;;;5061239;28;20043;-84
2023/02/06 14:08:05;;;;;;;5.72;1.67;;;16.80;99.90;;;;;;5089396;28;20032;-84
2023/02/06 14:10:37;;;;;;;5.47;1.23;;;15.80;99.90;;;;;;4979641;28;20096;-87
2023/02/06 14:13:29;;;;;;;5.22;1.20;;;14.50;99.90;;;;;;4990387;28;20030;-87
2023/02/06 14:16:02;;;;;;;7.03;1.30;;;13.40;99.90;;;;;;5048474;28;20099;-85
2023/02/06 14:18:47;;;;;;;7.00;1.52;;;12.40;99.90;;;;;;5082915;28;20032;-86
2023/02/06 14:21:30;;;;;;;8.85;1.48;;;11.70;99.90;;;;;;5066669;28;20027;-88
2023/02/06 14:24:35;;;;;;;5.57;1.30;;;11.30;99.90;;;;;;5092498;28;20036;-89
2023/02/06 14:27:03;;;;;;;6.43;1.33;;;11.00;99.90;;;;;;5049985;28;20093;-86
2023/02/06 14:29:44;;;;;;;8.57;1.45;;;10.70;99.90;;;;;;5078697;28;20119;-88
2023/02/06 14:32:29;;;;;;;5.07;0.95;;;10.70;99.90;;;;;;5091715;28;20024;-86
2023/02/06 14:35:20;;;;;;;4.57;1.30;;;10.70;99.90;;;;;;5077132;28;20039;-85
2023/02/06 14:37:49;;;;;;;6.03;1.05;;;10.70;99.90;;;;;;5072404;28;20115;-83
2023/02/06 14:40:24;;;;;;;7.15;1.23;;;10.60;99.90;;;;;;5063567;28;20043;-84
2023/02/06 14:42:55;;;;;;;4.97;1.08;;;10.60;99.90;;;;;;5073048;28;20381;-84
2023/02/06 14:45:36;;;;;;;3.88;1.17;;;10.60;99.90;;;;;;5070365;28;20114;-84
2023/02/06 14:48:04;;;;;;;5.22;1.20;;;10.60;99.90;;;;;;5071450;28;20496;-85
2023/02/06 14:50:34;;;;;;;3.60;0.95;;;10.60;99.90;;;;;;5061944;28;20119;-86
2023/02/06 14:53:08;;;;;;;7.97;1.73;;;10.50;99.90;;;;;;5074330;28;20032;-88
2023/02/06 14:55:39;;;;;;;4.90;1.23;;;10.40;99.90;;;;;;5064430;28;20037;-87
2023/02/06 14:58:17;;;;;;;5.15;1.05;;;10.30;99.90;;;;;;5066732;28;20210;-85
2023/02/06 15:00:42;;;;;;;5.97;1.25;;;10.10;99.90;;;;;;5064548;28;20029;-82
2023/02/06 15:03:17;;;;;;;7.03;1.50;;;10.00;99.90;;;;;;5071096;28;20028;-85
2023/02/06 15:05:43;;;;;;;5.75;1.45;;;9.90;99.90;;;;;;5070631;28;20568;-85
2023/02/06 15:08:19;;;;;;;5.72;1.45;;;9.90;99.90;;;;;;5069754;28;20013;-85
2023/02/06 15:10:46;;;;;;;6.28;1.45;;;9.80;99.90;;;;;;5067062;28;20048;-87
2023/02/06 15:13:23;;;;;;;6.97;1.50;;;9.70;99.90;;;;;;5064639;28;20087;-86
2023/02/06 15:15:54;;;;;;;7.95;1.90;;;9.70;99.90;;;;;;5073655;28;20489;-86
2023/02/06 15:18:19;;;;;;;7.07;2.58;;;9.50;99.90;;;;;;5070586;28;20020;-84
2023/02/06 15:20:52;;;;;;;11.18;2.30;;;9.50;99.90;;;;;;5071727;28;20043;-83
2023/02/06 15:23:39;;;;;;;8.50;2.22;;;9.40;99.90;;;;;;5074140;28;20082;-85
2023/02/06 15:26:23;;;;;;;8.07;1.90;;;9.40;99.90;;;;;;5077022;28;20935;-83
2023/02/06 15:28:56;;;;;;;9.07;1.98;;;9.30;99.90;;;;;;5074259;28;20024;-87
2023/02/06 15:31:22;;;;;;;7.07;2.25;;;9.20;99.90;;;;;;5081964;28;20028;-87
2023/02/06 15:33:51;;;;;;;6.97;1.42;;;9.10;99.90;;;;;;5078943;28;20034;-84
2023/02/06 15:36:30;;;;;;;7.85;1.80;;;9.10;99.90;;;;;;5065155;28;20021;-83
2023/02/06 15:39:00;;;;;;;9.40;2.20;;;9.10;99.90;;;;;;5083950;28;20080;-89
2023/02/06 15:41:28;;;;;;;9.70;1.77;;;9.00;99.90;;;;;;5081851;28;20492;-89
2023/02/06 15:44:09;;;;;;;11.73;1.92;;;8.90;99.90;;;;;;5076918;28;20084;-86
2023/02/06 15:46:36;;;;;;;7.45;1.77;;;8.80;99.90;;;;;;5063465;28;20025;-85
2023/02/06 15:49:05;;;;;;;4.47;1.70;;;8.60;99.90;;;;;;5083524;28;20017;-86
2023/02/06 15:51:47;;;;;;;6.18;1.42;;;8.50;99.90;;;;;;5092864;28;20533;-86
2023/02/06 15:54:24;;;;;;;5.57;1.55;;;8.40;99.90;;;;;;5086726;28;20035;-84
2023/02/06 15:57:16;;;;;;;7.13;1.85;;;8.30;99.90;;;;;;5077741;28;20021;-84
2023/02/06 15:59:47;;;;;;;7.38;1.60;;;8.20;99.90;;;;;;5030826;28;20096;-85
2023/02/06 16:02:29;;;;;;;5.63;1.30;;;8.10;99.90;;;;;;5077273;28;20077;-83
2023/02/06 16:04:55;;;;;;;6.15;1.52;;;8.00;99.90;;;;;;5075294;28;20060;-85
2023/02/06 16:07:24;;;;;;;8.65;1.80;;;7.90;99.90;;;;;;5079669;28;20021;-82
2023/02/06 16:09:58;;;;;;;6.90;1.70;;;7.90;99.90;;;;;;5075782;28;20044;-82
2023/02/06 16:12:24;;;;;;;7.13;1.40;;;7.80;99.90;;;;;;5065440;28;20783;-81
2023/02/06 16:15:00;;;;;;;10.20;1.73;;;7.70;99.90;;;;;;5073510;28;20025;-84
2023/02/06 16:17:31;;;;;;;7.35;1.50;;;7.70;99.90;;;;;;5066516;28;20027;-82
2023/02/06 16:20:03;;;;;;;6.00;1.73;;;7.60;99.90;;;;;;5065312;28;20017;-85
2023/02/06 16:22:32;;;;;;;4.63;1.30;;;7.60;99.90;;;;;;5062759;28;20056;-84
2023/02/06 16:25:15;;;;;;;8.68;1.90;;;7.50;99.90;;;;;;5066309;28;20398;-85
2023/02/06 16:27:44;;;;;;;6.43;1.48;;;7.50;99.90;;;;;;5055393;28;20021;-87
2023/02/06 16:30:36;;;;;;;7.93;1.88;;;7.40;99.90;;;;;;5061632;28;20025;-84
2023/02/06 16:33:24;;;;;;;5.32;1.45;;;7.30;99.90;;;;;;5053686;28;20032;-84
2023/02/06 16:35:49;;;;;;;5.13;1.05;;;7.20;99.90;;;;;;5068397;28;20033;-84
2023/02/06 16:38:15;;;;;;;6.95;1.52;;;7.20;99.90;;;;;;5055065;28;20079;-86
2023/02/06 16:40:40;;;;;;;6.25;1.40;;;7.10;99.90;;;;;;5072906;28;20087;-86
2023/02/06 16:43:10;;;;;;;5.35;1.30;;;7.00;99.90;;;;;;5072716;28;20035;-85
2023/02/06 16:45:35;;;;;;;4.50;1.38;;;6.90;99.90;;;;;;5081538;28;20040;-86
2023/02/06 16:48:01;;;;;;;7.50;1.38;;;6.90;99.90;;;;;;5072807;28;20036;-85
2023/02/06 16:50:27;;;;;;;5.65;1.50;;;6.80;99.90;;;;;;5066918;28;20119;-84
2023/02/06 16:52:54;;;;;;;5.95;1.23;;;6.80;99.90;;;;;;5068404;28;20033;-84
2023/02/06 16:55:25;;;;;;;6.18;1.48;;;6.70;99.90;;;;;;5061882;28;20030;-84
2023/02/06 16:58:00;;;;;;;5.68;1.50;;;6.60;99.90;;;;;;5060437;28;20039;-83
2023/02/06 17:00:28;;;;;;;7.40;1.63;;;6.50;99.90;;;;;;5069984;28;20020;-84